Carroll, IA

4:01 PM CDT on March 23, 2017 (GMT -0500)
Neu

Weather History for KCIN - November, 2012

Change the Weather History Date:

Sunday, November 18, 2012

  Actual Average Record
Temperature  
Mean Temperature 51 °F -  
Max Temperature 60 °F 46 °F 75 °F (1999)
Min Temperature 42 °F 28 °F 4 °F (1961)
Degree Days  
Heating Degree Days 14    
Growing Degree Days 1 (Base 50)    
Moisture  
Dew Point 32 °F    
Average Humidity 48    
Maximum Humidity 76    
Minimum Humidity 34    
Precipitation  
Precipitation 0.00 in - - ()
Sea Level Pressure  
Sea Level Pressure 30.12 in    
Wind  
Wind Speed 16 mph (South)    
Max Wind Speed 23 mph    
Max Gust Speed 32 mph    
Visibility 10 miles    
Events Rain    
Averages and records for this station are not official NWS values.
T = Trace of Precipitation, MM = Missing Value Source: NWS Daily Summary

Daily Weather History Graph

Daily Weather History Graph

Search for Another Location

Airport or City:

Trip Planner

Search our weather history database for the weather conditions in past years. The results will help you decide how hot, cold, wet, or windy it might be!

Date:

Astronomy

Nov. 18, 2012 Rise Set
Actual Time 7:13 AM CST 4:55 PM CST
Civil Twilight 6:43 AM CST 5:25 PM CST
Nautical Twilight 6:09 AM CST 5:59 PM CST
Astronomical Twilight 5:35 AM CST 6:32 PM CST
Moon 11:39 AM CST (11/18) 10:17 PM CST (11/18)
Length of Visible Light 10h 42m
Length of Day
9h 41m
Waxing Crescent, 30% of the Moon is Illuminated
Nov 18
Waxing Crescent
Nov 20
First Quarter
Nov 28
Full
Dec 6
Last Quarter
Dec 13
New

Hourly Weather History & Observations

Time (CST) Temp. Windchill Dew Point Humidity Pressure Visibility Wind Dir Wind Speed Gust Speed Precip Events Conditions
12:15 AM 50.0 °F - 32.0 °F 50% 30.20 in 10.0 mi South 17.3 mph - N/A   Overcast
12:35 AM 50.0 °F - 32.0 °F 50% 30.19 in 10.0 mi South 18.4 mph - N/A   Overcast
12:55 AM 50.0 °F - 32.0 °F 50% 30.19 in 10.0 mi South 18.4 mph 24.2 mph N/A   Overcast
1:15 AM 48.2 °F - 32.0 °F 54% 30.19 in 10.0 mi South 17.3 mph 24.2 mph N/A   Overcast
1:55 AM 48.2 °F - 30.2 °F 50% 30.18 in 10.0 mi South 15.0 mph 21.9 mph N/A   Overcast
2:15 AM 50.0 °F - 30.2 °F 47% 30.18 in 10.0 mi South 13.8 mph 20.7 mph N/A   Overcast
2:35 AM 50.0 °F - 30.2 °F 47% 30.18 in 10.0 mi South 13.8 mph 21.9 mph N/A   Overcast
2:55 AM 48.2 °F - 30.2 °F 50% 30.18 in 10.0 mi South 15.0 mph 23.0 mph N/A   Overcast
3:15 AM 50.0 °F - 30.2 °F 47% 30.17 in 10.0 mi South 17.3 mph - N/A   Overcast
3:35 AM 48.2 °F - 30.2 °F 50% 30.17 in 10.0 mi South 16.1 mph - N/A   Overcast
3:55 AM 48.2 °F - 30.2 °F 50% 30.16 in 10.0 mi South 16.1 mph 21.9 mph N/A   Overcast
4:15 AM 48.2 °F - 30.2 °F 50% 30.16 in 10.0 mi South 19.6 mph - N/A   Overcast
4:35 AM 48.2 °F - 30.2 °F 50% 30.15 in 10.0 mi South 17.3 mph 24.2 mph N/A   Overcast
4:55 AM 48.2 °F - 30.2 °F 50% 30.15 in 10.0 mi South 17.3 mph 24.2 mph N/A   Mostly Cloudy
5:15 AM 46.4 °F 40.1 °F 30.2 °F 53% 30.15 in 10.0 mi South 15.0 mph 20.7 mph N/A   Partly Cloudy
5:35 AM 46.4 °F 40.4 °F 30.2 °F 53% 30.15 in 10.0 mi South 13.8 mph - N/A   Clear
5:55 AM 44.6 °F 38.1 °F 30.2 °F 57% 30.15 in 10.0 mi South 13.8 mph - N/A   Clear
6:15 AM 44.6 °F 38.8 °F 30.2 °F 57% 30.15 in 10.0 mi South 11.5 mph - N/A   Clear
6:35 AM 42.8 °F 36.2 °F 30.2 °F 61% 30.15 in 10.0 mi South 12.7 mph - N/A   Clear
6:55 AM 42.8 °F 36.6 °F 30.2 °F 61% 30.15 in 10.0 mi South 11.5 mph - N/A   Clear
7:15 AM 42.8 °F 36.2 °F 30.2 °F 61% 30.15 in 10.0 mi South 12.7 mph - N/A   Clear
7:35 AM 42.8 °F 36.6 °F 30.2 °F 61% 30.15 in 10.0 mi South 11.5 mph - N/A   Clear
7:55 AM 42.8 °F 36.2 °F 30.2 °F 61% 30.14 in 10.0 mi South 12.7 mph - N/A   Clear
8:15 AM 44.6 °F 37.2 °F 30.2 °F 57% 30.14 in 10.0 mi South 17.3 mph - N/A   Clear
8:35 AM 44.6 °F 38.1 °F 30.2 °F 57% 30.15 in 10.0 mi South 13.8 mph - N/A   Clear
8:55 AM 46.4 °F 40.1 °F 30.2 °F 53% 30.15 in 10.0 mi South 15.0 mph - N/A   Clear
9:15 AM 50.0 °F - 30.2 °F 47% 30.15 in 10.0 mi South 20.7 mph 26.5 mph N/A   Clear
9:35 AM 51.8 °F - 30.2 °F 44% 30.14 in 10.0 mi South 21.9 mph - N/A   Clear
9:55 AM 53.6 °F - 30.2 °F 41% 30.14 in 10.0 mi SSW 18.4 mph 26.5 mph N/A   Clear
10:15 AM 53.6 °F - 30.2 °F 41% 30.14 in 10.0 mi South 20.7 mph 27.6 mph N/A   Clear
10:35 AM 53.6 °F - 30.2 °F 41% 30.14 in 10.0 mi South 19.6 mph - N/A   Clear
10:55 AM 55.4 °F - 30.2 °F 38% 30.14 in 10.0 mi SSW 17.3 mph 24.2 mph N/A   Clear
11:15 AM 55.4 °F - 30.2 °F 38% 30.13 in 10.0 mi SSW 19.6 mph - N/A   Clear
11:35 AM 57.2 °F - 30.2 °F 36% 30.13 in 10.0 mi SSW 20.7 mph - N/A   Clear
11:55 AM 59.0 °F - 30.2 °F 34% 30.12 in 10.0 mi South 19.6 mph - N/A   Clear
12:15 PM 59.0 °F - 30.2 °F 34% 30.11 in 10.0 mi South 16.1 mph 23.0 mph N/A   Clear
12:35 PM 59.0 °F - 30.2 °F 34% 30.11 in 10.0 mi South 16.1 mph 25.3 mph N/A   Clear
12:55 PM 59.0 °F - 30.2 °F 34% 30.10 in 10.0 mi South 20.7 mph - N/A   Clear
1:15 PM 60.8 °F - 32.0 °F 34% 30.09 in 10.0 mi South 19.6 mph - N/A   Clear
1:35 PM 60.8 °F - 32.0 °F 34% 30.08 in 10.0 mi South 20.7 mph - N/A   Clear
1:55 PM 60.8 °F - 32.0 °F 34% 30.08 in 10.0 mi South 19.6 mph 25.3 mph N/A   Clear
2:15 PM 60.8 °F - 32.0 °F 34% 30.08 in 10.0 mi South 16.1 mph - N/A   Clear
2:35 PM 60.8 °F - 32.0 °F 34% 30.07 in 10.0 mi South 21.9 mph - N/A   Clear
2:55 PM 60.8 °F - 32.0 °F 34% 30.08 in 10.0 mi South 16.1 mph 24.2 mph N/A   Clear
3:15 PM 59.0 °F - 33.8 °F 39% 30.08 in 10.0 mi South 13.8 mph 20.7 mph N/A   Clear
3:35 PM 59.0 °F - 33.8 °F 39% 30.08 in 10.0 mi SSE 13.8 mph - N/A   Clear
3:55 PM 59.0 °F - 32.0 °F 36% 30.09 in 10.0 mi SSE 17.3 mph - N/A   Clear
4:15 PM 57.2 °F - 32.0 °F 38% 30.09 in 10.0 mi SSE 16.1 mph 23.0 mph N/A   Clear
4:35 PM 55.4 °F - 33.8 °F 44% 30.10 in 10.0 mi SSE 12.7 mph - N/A   Clear
4:55 PM 55.4 °F - 33.8 °F 44% 30.10 in 10.0 mi SSE 12.7 mph 20.7 mph N/A   Clear
5:15 PM 53.6 °F - 33.8 °F 47% 30.09 in 10.0 mi SSE 12.7 mph - N/A   Clear
5:35 PM 53.6 °F - 33.8 °F 47% 30.09 in 10.0 mi SSE 13.8 mph - N/A   Clear
5:55 PM 53.6 °F - 33.8 °F 47% 30.09 in 10.0 mi SSE 13.8 mph 19.6 mph N/A   Clear
6:15 PM 51.8 °F - 33.8 °F 50% 30.10 in 10.0 mi SSE 12.7 mph - N/A   Clear
6:35 PM 51.8 °F - 35.6 °F 54% 30.09 in 10.0 mi SSE 16.1 mph - N/A   Clear
6:55 PM 51.8 °F - 35.6 °F 54% 30.09 in 10.0 mi SSE 15.0 mph - N/A   Clear
7:15 PM 51.8 °F - 35.6 °F 54% 30.09 in 10.0 mi SSE 13.8 mph - N/A   Clear
7:35 PM 51.8 °F - 35.6 °F 54% 30.08 in 10.0 mi SSE 15.0 mph - N/A   Clear
7:55 PM 51.8 °F - 35.6 °F 54% 30.08 in 10.0 mi SSE 12.7 mph 19.6 mph N/A   Partly Cloudy
8:15 PM 51.8 °F - 35.6 °F 54% 30.08 in 10.0 mi SSE 13.8 mph - N/A   Clear
8:35 PM 53.6 °F - 35.6 °F 51% 30.09 in 10.0 mi South 15.0 mph - N/A   Mostly Cloudy
8:55 PM 53.6 °F - 35.6 °F 51% 30.09 in 10.0 mi South 13.8 mph - N/A   Overcast
9:15 PM 53.6 °F - 35.6 °F 51% 30.09 in 10.0 mi South 15.0 mph - N/A   Overcast
9:35 PM 53.6 °F - 35.6 °F 51% 30.10 in 10.0 mi South 15.0 mph - N/A   Overcast
9:55 PM 55.4 °F - 33.8 °F 44% 30.09 in 10.0 mi South 17.3 mph 24.2 mph N/A   Overcast
10:35 PM 55.4 °F - 35.6 °F 47% 30.08 in 10.0 mi South 23.0 mph 32.2 mph N/A   Mostly Cloudy
10:55 PM 53.6 °F - 35.6 °F 51% 30.10 in 10.0 mi South 11.5 mph 20.7 mph N/A   Mostly Cloudy
11:15 PM 51.8 °F - 37.4 °F 58% 30.08 in 10.0 mi South 16.1 mph 24.2 mph N/A   Overcast
11:55 PM 50.0 °F - 42.8 °F 76% 30.08 in 10.0 mi South 13.8 mph 21.9 mph N/A Rain Light Rain